Terminal Aerodrome Forecast
Issued by NWS Mt. Holly, NJ

Home | Current Version | Previous Version | Text Only | Print | Product List | Glossary On
Versions: 1 2 3 4 5 6 7 8 9 10 11 12 13 14 15 16 17 18 19 20 21 22 23 24 25
000
FTUS41 KPHI 280540
TAFABE
TAF
KABE 280540Z 2806/2906 08004KT 5SM BR BKN060
     FM280900 07004KT 2SM BR VCSH OVC003
     FM281400 06004KT 2SM BR VCSH OVC006
     FM282000 06004KT 5SM RA BR OVC007
     FM290000 36004KT 2SM BR VCSH OVC015
     FM290300 36006KT P6SM BKN025=

USA.gov is the U.S. government's official web portal to all federal, state and local government web resources and services.